Time;durP1;ratioP1;P1;durP2;ratioP2;P2;SDS_P1;SDS_P2;PMS_P1;PMS_P2;Temp;Humidity;BMP_temperature;BMP_pressure;BME280_temperature;BME280_humidity;BME280_pressure;Samples;Min_cycle;Max_cycle;Signal;HPM_P1;HPM_P2
2023/09/05 00:01:51;;;;;;;2.33;0.75;;;;;;;19.83;54.52;100966.41;10281624;28;20051;-70
2023/09/05 00:06:52;;;;;;;3.08;0.80;;;;;;;19.77;54.59;100957.22;10284402;28;20391;-71
2023/09/05 00:11:54;;;;;;;2.80;1.00;;;;;;;19.71;54.82;100960.00;10282507;28;20388;-72
2023/09/05 00:16:55;;;;;;;2.47;0.60;;;;;;;19.66;54.97;100960.63;10289744;28;20047;-70
2023/09/05 00:21:57;;;;;;;2.97;0.90;;;;;;;19.68;55.04;100963.16;10287358;28;20185;-73
2023/09/05 00:26:59;;;;;;;4.43;1.10;;;;;;;19.61;55.17;100957.75;10287060;28;20122;-71
2023/09/05 00:32:03;;;;;;;2.33;1.08;;;;;;;19.55;55.04;100958.59;10286209;28;20255;-70
2023/09/05 00:37:08;;;;;;;1.15;0.65;;;;;;;19.53;55.43;100958.00;10287457;28;20047;-70
2023/09/05 00:42:10;;;;;;;2.97;1.00;;;;;;;19.42;55.60;100965.81;10287970;28;20699;-69
2023/09/05 00:47:12;;;;;;;2.85;0.60;;;;;;;19.33;55.86;100964.44;10285876;28;20047;-71
2023/09/05 00:52:14;;;;;;;1.30;0.70;;;;;;;19.29;55.82;100957.72;10287912;28;20089;-69
2023/09/05 00:57:19;;;;;;;2.95;0.70;;;;;;;19.25;55.91;100966.56;10288148;28;20266;-70
2023/09/05 01:02:20;;;;;;;0.90;0.70;;;;;;;19.18;56.30;100962.00;10291309;28;20056;-68
2023/09/05 01:07:51;;;;;;;4.82;0.90;;;;;;;19.10;56.77;100959.53;10289746;28;20050;-70
2023/09/05 01:12:52;;;;;;;1.52;0.90;;;;;;;19.06;56.72;100957.47;10291745;28;20094;-70
2023/09/05 01:17:54;;;;;;;1.80;0.85;;;;;;;19.00;56.92;100973.59;10290933;28;20114;-71
2023/09/05 01:23:06;;;;;;;2.50;0.88;;;;;;;18.90;57.29;100973.25;10295374;28;20539;-69
2023/09/05 01:28:11;;;;;;;4.55;1.17;;;;;;;18.87;57.33;100961.94;10296668;28;20054;-70
2023/09/05 01:33:14;;;;;;;1.52;0.65;;;;;;;18.83;57.46;100954.19;10291025;28;20098;-68
2023/09/05 01:38:15;;;;;;;2.08;0.88;;;;;;;18.79;57.89;100962.97;10305071;28;20051;-68
2023/09/05 01:43:18;;;;;;;1.30;0.75;;;;;;;18.74;57.88;100963.63;10290042;28;20311;-70
2023/09/05 01:48:19;;;;;;;1.75;0.63;;;;;;;18.72;57.86;100957.56;10291778;28;20054;-70
2023/09/05 01:53:20;;;;;;;3.35;0.95;;;;;;;18.71;57.87;100957.78;10302105;28;20114;-69
2023/09/05 01:58:22;;;;;;;5.20;0.90;;;;;;;18.61;58.00;100960.94;10287322;28;20047;-69
2023/09/05 02:03:23;;;;;;;1.80;1.02;;;;;;;18.58;58.09;100955.91;10290960;28;20098;-70
2023/09/05 02:08:25;;;;;;;2.88;0.93;;;;;;;18.55;58.13;100953.63;10283204;28;20046;-70
2023/09/05 02:13:28;;;;;;;4.60;0.82;;;;;;;18.48;58.20;100960.97;10282159;28;20113;-71
2023/09/05 02:18:30;;;;;;;3.90;0.80;;;;;;;18.38;58.51;100956.81;10286909;28;20151;-70
2023/09/05 02:23:31;;;;;;;3.15;0.82;;;;;;;18.35;58.65;100959.97;10299222;28;20110;-70
2023/09/05 02:28:32;;;;;;;1.60;0.90;;;;;;;18.31;58.79;100947.81;10288716;28;20054;-71
2023/09/05 02:33:37;;;;;;;2.55;0.82;;;;;;;18.30;58.90;100954.31;10285131;28;20062;-73
2023/09/05 02:38:38;;;;;;;2.45;1.35;;;;;;;17.98;59.78;100947.88;10288713;28;20254;-70
2023/09/05 02:43:41;;;;;;;3.53;1.20;;;;;;;17.69;60.89;100960.78;10287786;28;20046;-71
2023/09/05 02:48:43;;;;;;;3.83;1.77;;;;;;;17.75;60.68;100950.97;10281517;28;20054;-69
2023/09/05 02:53:44;;;;;;;1.48;0.95;;;;;;;17.80;60.70;100951.19;10282430;28;20050;-72
2023/09/05 02:58:48;;;;;;;2.50;1.02;;;;;;;17.84;60.69;100945.13;10283268;28;20043;-71
2023/09/05 03:03:49;;;;;;;3.10;0.85;;;;;;;17.86;60.47;100952.25;10284644;28;20283;-72
2023/09/05 03:08:51;;;;;;;3.55;0.70;;;;;;;17.87;60.37;100943.03;10301096;28;20058;-69
2023/09/05 03:13:52;;;;;;;2.20;1.05;;;;;;;17.87;60.53;100943.91;10287130;28;20118;-70
2023/09/05 03:18:59;;;;;;;1.98;0.98;;;;;;;17.80;60.51;100941.13;10288271;28;20343;-69
2023/09/05 03:24:00;;;;;;;1.25;0.80;;;;;;;17.75;60.78;100937.38;10284606;28;20283;-69
2023/09/05 03:29:02;;;;;;;2.58;0.95;;;;;;;17.72;60.86;100935.06;10285060;28;20081;-70
2023/09/05 03:34:03;;;;;;;2.08;0.88;;;;;;;17.69;60.92;100932.75;10284588;28;20134;-69
2023/09/05 03:39:05;;;;;;;8.10;0.65;;;;;;;17.61;61.26;100922.94;10283805;28;20117;-69
2023/09/05 03:44:06;;;;;;;4.30;1.50;;;;;;;17.52;61.46;100926.91;10280816;28;20054;-69
2023/09/05 03:49:07;;;;;;;2.30;0.80;;;;;;;17.46;61.48;100920.41;10284213;28;20114;-71
2023/09/05 03:54:10;;;;;;;2.03;0.90;;;;;;;17.49;61.72;100916.44;10282719;28;20051;-70
2023/09/05 03:59:11;;;;;;;1.67;1.00;;;;;;;17.52;61.34;100919.59;10287920;28;20059;-70
2023/09/05 04:04:13;;;;;;;3.47;0.85;;;;;;;17.55;61.44;100916.44;10285232;28;20105;-70
2023/09/05 04:09:14;;;;;;;2.08;1.02;;;;;;;17.55;61.62;100911.00;10284003;28;20047;-71
2023/09/05 04:14:16;;;;;;;1.63;0.90;;;;;;;17.49;61.82;100911.00;10283004;28;20352;-69
2023/09/05 04:19:17;;;;;;;2.45;0.90;;;;;;;17.48;61.89;100909.34;10284464;28;20039;-69
2023/09/05 04:24:19;;;;;;;2.63;0.80;;;;;;;17.48;61.80;100909.34;10284087;28;20296;-71
2023/09/05 04:29:20;;;;;;;1.70;1.15;;;;;;;17.42;61.95;100908.28;10283768;28;20121;-70
2023/09/05 04:34:21;;;;;;;2.35;1.23;;;;;;;17.36;62.16;100909.94;10275937;28;20118;-71
2023/09/05 04:39:23;;;;;;;3.92;0.80;;;;;;;17.39;62.14;100916.84;10283972;28;20046;-69
2023/09/05 04:44:27;;;;;;;3.50;1.25;;;;;;;17.30;62.58;100918.94;10282706;28;20137;-66
2023/09/05 04:49:28;;;;;;;2.50;0.70;;;;;;;17.27;62.60;100922.06;10279361;28;20058;-65
2023/09/05 04:54:29;;;;;;;1.27;0.80;;;;;;;17.41;62.48;100929.19;10281599;28;20073;-67
2023/09/05 04:59:31;;;;;;;3.28;1.23;;;;;;;17.48;62.15;100929.19;10285307;28;20074;-65
2023/09/05 05:04:32;;;;;;;1.58;0.73;;;;;;;17.41;62.44;100931.91;10285846;28;20118;-65
2023/09/05 05:09:34;;;;;;;2.10;1.10;;;;;;;17.46;62.40;100939.44;10282895;28;20101;-67
2023/09/05 05:14:35;;;;;;;2.25;0.90;;;;;;;17.56;62.33;100944.47;10288721;28;20292;-66
2023/09/05 05:19:37;;;;;;;1.50;0.77;;;;;;;17.66;62.37;100942.19;10291078;28;20053;-66
2023/09/05 05:24:38;;;;;;;4.18;1.13;;;;;;;17.76;62.06;100948.03;10283703;28;20059;-66
2023/09/05 05:29:39;;;;;;;2.47;0.95;;;;;;;17.80;62.05;100941.13;10285905;28;20073;-66
2023/09/05 05:34:41;;;;;;;3.05;1.25;;;;;;;17.89;61.99;100944.53;10286458;28;20065;-67
2023/09/05 05:39:43;;;;;;;2.58;0.85;;;;;;;17.95;62.22;100943.69;10287702;28;20062;-70
2023/09/05 05:44:44;;;;;;;3.45;1.02;;;;;;;18.09;61.84;100940.94;10285808;28;20054;-70
2023/09/05 05:49:45;;;;;;;2.63;0.90;;;;;;;18.20;61.88;100943.00;10290150;28;20121;-71
2023/09/05 05:54:47;;;;;;;1.20;0.73;;;;;;;18.35;61.88;100954.50;10282393;28;20110;-73
2023/09/05 05:59:48;;;;;;;2.03;0.70;;;;;;;18.54;61.67;100947.34;10293488;28;20106;-67
2023/09/05 06:04:49;;;;;;;4.10;0.85;;;;;;;18.73;61.34;100951.03;10291499;28;20046;-67
2023/09/05 06:09:51;;;;;;;2.40;0.80;;;;;;;18.94;61.03;100957.31;10290517;28;20062;-67
2023/09/05 06:14:52;;;;;;;2.75;0.80;;;;;;;19.07;61.09;100959.94;10301950;28;20053;-67
2023/09/05 06:19:54;;;;;;;5.13;1.77;;;;;;;19.24;60.82;100948.56;10289745;28;20071;-68
2023/09/05 06:24:55;;;;;;;3.30;0.90;;;;;;;19.44;60.48;100941.06;10284529;28;20086;-67
2023/09/05 06:29:56;;;;;;;4.85;0.85;;;;;;;19.64;60.16;100937.38;10277964;28;20038;-67
2023/09/05 06:34:58;;;;;;;2.80;1.00;;;;;;;19.77;59.88;100934.56;10289558;28;20363;-68
2023/09/05 06:40:00;;;;;;;1.58;0.80;;;;;;;19.93;59.65;100928.53;10289327;28;20053;-67
2023/09/05 06:45:04;;;;;;;4.25;1.00;;;;;;;20.13;59.46;100947.47;10288568;28;20355;-72
2023/09/05 06:50:06;;;;;;;1.35;0.50;;;;;;;20.30;58.52;100953.19;10282755;28;20110;-74
2023/09/05 06:55:07;;;;;;;2.20;0.65;;;;;;;20.49;57.70;100950.47;10285523;28;20051;-74
2023/09/05 07:00:10;;;;;;;3.60;0.50;;;;;;;20.70;56.53;100954.69;10284598;28;20058;-75
2023/09/05 07:05:12;;;;;;;2.80;0.85;;;;;;;20.91;56.11;100948.75;10286982;28;20066;-75
2023/09/05 07:10:13;;;;;;;1.38;0.60;;;;;;;21.09;55.63;100956.06;10288424;28;20411;-74
2023/09/05 07:15:15;;;;;;;1.65;0.70;;;;;;;21.26;55.08;100963.63;10285892;28;20074;-75
2023/09/05 07:20:16;;;;;;;2.08;0.95;;;;;;;21.42;54.84;100964.88;10287376;28;20050;-75
2023/09/05 07:25:20;;;;;;;2.50;0.70;;;;;;;21.58;54.25;100956.03;10280566;28;20344;-75
2023/09/05 07:30:21;;;;;;;1.25;0.50;;;;;;;21.76;53.67;100952.38;10276814;28;20050;-73
2023/09/05 07:35:22;;;;;;;2.50;0.73;;;;;;;21.90;53.68;100963.94;10289235;28;20041;-72
2023/09/05 07:40:26;;;;;;;2.38;0.80;;;;;;;22.06;53.31;100956.91;10286026;28;20054;-77
2023/09/05 07:45:27;;;;;;;2.58;0.70;;;;;;;22.23;52.76;100948.84;10297269;28;20355;-71
2023/09/05 07:50:29;;;;;;;1.48;0.70;;;;;;;22.38;52.25;100960.19;10299160;28;20077;-72
2023/09/05 07:55:30;;;;;;;2.45;0.60;;;;;;;22.55;52.18;100954.78;10278630;28;20047;-74
2023/09/05 08:00:32;;;;;;;1.63;0.70;;;;;;;22.60;51.90;100948.59;10281645;28;20038;-70
2023/09/05 08:05:33;;;;;;;1.30;0.60;;;;;;;22.75;51.87;100952.50;10281954;28;20338;-72
2023/09/05 08:10:37;;;;;;;1.17;0.60;;;;;;;22.88;51.32;100942.31;10277795;28;20053;-72
2023/09/05 08:15:38;;;;;;;3.70;0.70;;;;;;;23.02;50.28;100949.19;10277752;28;20051;-73
2023/09/05 08:20:42;;;;;;;0.98;0.73;;;;;;;23.07;50.30;100945.75;10280784;28;20051;-73
2023/09/05 08:25:45;;;;;;;2.10;0.60;;;;;;;23.18;49.89;100944.84;10278586;28;20043;-70
2023/09/05 08:30:47;;;;;;;1.42;0.77;;;;;;;23.31;49.50;100943.72;10293032;28;20141;-68
2023/09/05 08:35:48;;;;;;;2.50;0.75;;;;;;;23.41;49.73;100943.91;10280422;28;20097;-68
2023/09/05 08:40:50;;;;;;;2.38;0.70;;;;;;;23.45;49.48;100949.75;10293472;28;20067;-71
2023/09/05 08:45:53;;;;;;;1.00;0.50;;;;;;;23.56;49.30;100949.66;10288790;28;20131;-71
2023/09/05 08:50:55;;;;;;;1.38;0.57;;;;;;;23.70;48.46;100943.88;10287924;28;20069;-72
2023/09/05 08:55:57;;;;;;;1.48;0.50;;;;;;;23.91;48.32;100945.91;10286869;28;20115;-71
2023/09/05 09:00:59;;;;;;;3.55;1.02;;;;;;;24.12;48.02;100943.47;10278731;28;20050;-69
2023/09/05 09:06:00;;;;;;;2.80;0.90;;;;;;;24.26;48.09;100938.44;10282284;28;20066;-71
2023/09/05 09:11:09;;;;;;;4.72;0.70;;;;;;;24.41;47.93;100933.16;10290319;28;20933;-72
2023/09/05 09:16:17;;;;;;;2.22;0.40;;;;;;;24.60;47.66;100932.88;10287305;28;20333;-69
2023/09/05 09:21:18;;;;;;;2.35;1.35;;;;;;;24.82;47.10;100936.47;10286002;28;20058;-71
2023/09/05 09:26:26;;;;;;;0.93;0.53;;;;;;;25.01;46.68;100927.88;10286585;28;20055;-73
2023/09/05 09:31:29;;;;;;;1.02;0.50;;;;;;;25.22;45.79;100926.22;10288546;28;20489;-71
2023/09/05 09:36:33;;;;;;;1.85;0.65;;;;;;;25.41;45.45;100918.38;10293190;28;20287;-69
2023/09/05 09:41:49;;;;;;;3.80;0.52;;;;;;;25.59;44.61;100917.16;10285475;28;20062;-70
2023/09/05 09:46:52;;;;;;;1.27;0.60;;;;;;;25.73;44.13;100910.13;10300675;28;20247;-71
2023/09/05 09:51:55;;;;;;;0.80;0.40;;;;;;;25.87;44.17;100900.34;10282722;28;20347;-72
2023/09/05 09:57:03;;;;;;;1.25;0.50;;;;;;;26.14;43.73;100907.69;10278063;28;20110;-72
2023/09/05 10:02:09;;;;;;;0.63;0.60;;;;;;;26.29;42.94;100893.16;10284169;28;20051;-72
2023/09/05 10:07:18;;;;;;;1.90;0.60;;;;;;;26.47;42.64;100894.63;10282405;28;20919;-72
2023/09/05 10:12:23;;;;;;;3.10;0.50;;;;;;;26.71;42.23;100900.53;10283311;28;20055;-72
2023/09/05 10:17:26;;;;;;;2.13;0.68;;;;;;;26.97;42.12;100895.09;10284168;28;20053;-73
2023/09/05 10:22:31;;;;;;;2.70;0.50;;;;;;;27.24;41.50;100879.16;10286564;28;20051;-73
2023/09/05 10:27:33;;;;;;;2.33;0.50;;;;;;;27.55;40.96;100881.09;10282148;28;20320;-71
2023/09/05 10:32:35;;;;;;;2.97;0.88;;;;;;;27.99;40.50;100877.78;10290268;28;20050;-72
2023/09/05 10:37:44;;;;;;;1.17;0.50;;;;;;;28.51;39.37;100870.97;10292936;28;20292;-74
2023/09/05 10:42:51;;;;;;;1.08;0.65;;;;;;;28.96;38.50;100863.53;10279079;28;20089;-73
2023/09/05 10:47:56;;;;;;;1.50;0.70;;;;;;;29.55;37.65;100858.97;10303004;28;20070;-71
2023/09/05 10:53:10;;;;;;;1.40;0.70;;;;;;;29.91;37.49;100860.56;10301184;28;20344;-71
2023/09/05 10:58:48;;;;;;;1.52;0.50;;;;;;;30.30;36.51;100843.75;10283547;28;20043;-73
2023/09/05 11:03:49;;;;;;;1.20;0.50;;;;;;;30.64;36.12;100842.78;10278066;28;20473;-73
2023/09/05 11:08:57;;;;;;;2.05;0.50;;;;;;;30.81;36.18;100831.19;10281529;28;20129;-69
2023/09/05 11:13:59;;;;;;;2.88;0.40;;;;;;;30.93;35.46;100822.41;10290100;28;20049;-69
2023/09/05 11:19:03;;;;;;;1.50;0.55;;;;;;;31.02;35.41;100824.22;10298607;28;20054;-69
2023/09/05 11:24:05;;;;;;;1.73;0.50;;;;;;;31.12;34.79;100828.75;10302740;28;20043;-69
2023/09/05 11:29:07;;;;;;;3.60;0.47;;;;;;;31.22;34.69;100816.66;10301584;28;20051;-70
2023/09/05 11:34:08;;;;;;;0.60;0.40;;;;;;;31.24;34.55;100814.38;10299395;28;20085;-68
2023/09/05 11:39:10;;;;;;;0.60;0.30;;;;;;;31.37;34.17;100815.56;10296750;28;20402;-73
2023/09/05 11:44:11;;;;;;;2.70;0.40;;;;;;;31.43;34.19;100825.47;10308139;28;20063;-76
2023/09/05 11:49:13;;;;;;;1.08;0.60;;;;;;;31.51;34.08;100813.66;10303473;28;20047;-74
2023/09/05 11:54:15;;;;;;;1.90;0.50;;;;;;;31.73;33.55;100814.94;10299199;28;20066;-74
2023/09/05 11:59:17;;;;;;;1.02;0.65;;;;;;;31.98;33.11;100805.28;10301343;28;20066;-77
2023/09/05 12:04:19;;;;;;;1.63;0.40;;;;;;;32.16;32.84;100796.03;10310334;28;20059;-74
2023/09/05 12:09:20;;;;;;;1.00;0.40;;;;;;;32.31;32.44;100805.19;10302863;28;20043;-70
2023/09/05 12:14:22;;;;;;;0.90;0.40;;;;;;;32.50;32.34;100783.59;10296181;28;20075;-69
2023/09/05 12:19:27;;;;;;;1.27;0.50;;;;;;;32.79;31.79;100782.41;10311813;28;20039;-69
2023/09/05 12:24:29;;;;;;;0.45;0.40;;;;;;;32.77;31.54;100773.53;10308229;28;20054;-69
2023/09/05 12:29:41;;;;;;;1.42;0.40;;;;;;;33.11;30.79;100772.97;10302757;28;20035;-70
2023/09/05 12:34:43;;;;;;;2.10;0.40;;;;;;;33.22;30.76;100759.63;10305389;28;20058;-69
2023/09/05 12:39:45;;;;;;;1.83;0.90;;;;;;;33.45;31.07;100760.38;10301561;28;20039;-69
2023/09/05 12:44:46;;;;;;;3.05;0.75;;;;;;;33.80;30.27;100756.94;10309564;28;20069;-69
2023/09/05 12:49:48;;;;;;;1.27;0.40;;;;;;;33.77;29.52;100752.84;10303472;28;20269;-70
2023/09/05 12:55:11;;;;;;;9.23;0.40;;;;;;;33.89;30.39;100743.88;10315803;28;20043;-67
2023/09/05 13:00:14;;;;;;;3.65;0.40;;;;;;;34.00;29.19;100736.81;10300474;28;20085;-70
2023/09/05 13:05:15;;;;;;;0.90;0.60;;;;;;;33.99;28.80;100737.97;10292211;28;20065;-69
2023/09/05 13:10:17;;;;;;;0.82;0.40;;;;;;;34.05;29.17;100730.28;10289177;28;20053;-69
2023/09/05 13:15:18;;;;;;;0.43;0.40;;;;;;;34.13;29.46;100726.69;10287239;28;20062;-70
2023/09/05 13:20:20;;;;;;;2.03;0.40;;;;;;;34.25;29.43;100724.09;10286603;28;20118;-70
2023/09/05 13:25:32;;;;;;;0.40;0.30;;;;;;;34.51;28.71;100738.03;10286088;28;20055;-71
2023/09/05 13:30:34;;;;;;;1.65;0.30;;;;;;;34.54;28.31;100736.59;10286904;28;20332;-70
2023/09/05 13:35:37;;;;;;;0.40;0.30;;;;;;;34.76;27.55;100722.47;10290508;28;20438;-69
2023/09/05 13:40:38;;;;;;;3.58;0.40;;;;;;;34.71;27.40;100724.59;10288547;28;20054;-70
2023/09/05 13:45:40;;;;;;;1.42;0.40;;;;;;;34.88;27.33;100715.38;10277511;28;20039;-70
2023/09/05 13:50:41;;;;;;;1.60;0.30;;;;;;;35.04;27.38;100708.09;10282713;28;20063;-69
2023/09/05 13:55:44;;;;;;;0.50;0.40;;;;;;;35.18;26.96;100701.53;10283973;28;20105;-70
2023/09/05 14:00:45;;;;;;;0.47;0.30;;;;;;;35.33;26.77;100689.78;10293140;28;20110;-71
2023/09/05 14:05:47;;;;;;;0.52;0.30;;;;;;;35.70;26.33;100682.53;10281775;28;20055;-69
2023/09/05 14:10:50;;;;;;;0.85;0.20;;;;;;;36.21;26.16;100673.34;10304120;28;20055;-69
2023/09/05 14:15:51;;;;;;;1.27;0.30;;;;;;;36.72;25.77;100666.44;10282922;28;20078;-70
2023/09/05 14:20:53;;;;;;;0.68;0.40;;;;;;;37.34;24.95;100662.94;10288386;28;20082;-68
2023/09/05 14:25:54;;;;;;;2.45;0.40;;;;;;;39.04;23.36;100651.59;10281989;28;20067;-69
2023/09/05 14:30:57;;;;;;;2.88;0.30;;;;;;;40.62;22.02;100659.97;10283397;28;20102;-69
2023/09/05 14:35:59;;;;;;;0.40;0.22;;;;;;;41.67;20.64;100638.03;10281381;28;20084;-69
2023/09/05 14:41:00;;;;;;;1.30;0.40;;;;;;;41.79;19.91;100642.63;10278215;28;20066;-70
2023/09/05 14:46:02;;;;;;;2.25;0.40;;;;;;;42.05;19.54;100643.81;10283879;28;20074;-70
2023/09/05 14:51:04;;;;;;;3.08;0.25;;;;;;;42.11;19.53;100642.25;10282407;28;20047;-71
2023/09/05 14:56:05;;;;;;;1.85;0.28;;;;;;;41.66;19.91;100646.88;10282324;28;20066;-70
2023/09/05 15:01:07;;;;;;;2.75;0.40;;;;;;;40.62;20.44;100631.78;10279329;28;20343;-71
2023/09/05 15:06:10;;;;;;;1.23;0.38;;;;;;;39.35;21.34;100629.41;10281942;28;20173;-69
2023/09/05 15:11:11;;;;;;;3.22;0.32;;;;;;;38.55;21.86;100622.94;10282743;28;20114;-69
2023/09/05 15:16:13;;;;;;;1.00;0.30;;;;;;;37.86;22.64;100614.53;10289338;28;20058;-72
2023/09/05 15:21:15;;;;;;;1.20;0.30;;;;;;;37.37;23.02;100625.78;10279132;28;20177;-70
2023/09/05 15:26:17;;;;;;;0.47;0.20;;;;;;;36.87;23.67;100608.09;10278821;28;20046;-70
2023/09/05 15:31:19;;;;;;;0.40;0.40;;;;;;;36.82;23.50;100611.94;10279401;28;20062;-70
2023/09/05 15:36:20;;;;;;;1.85;0.30;;;;;;;36.61;24.60;100602.75;10286485;28;20093;-79
2023/09/05 15:41:22;;;;;;;1.48;0.50;;;;;;;36.27;24.89;100596.38;10280649;28;20043;-75
2023/09/05 15:46:23;;;;;;;2.17;0.40;;;;;;;36.12;25.41;100595.81;10284947;28;20069;-74
2023/09/05 15:51:25;;;;;;;1.23;0.40;;;;;;;35.84;25.36;100598.34;10281642;28;20035;-76
2023/09/05 15:56:27;;;;;;;1.67;0.40;;;;;;;35.72;26.55;100601.91;10281675;28;20062;-74
2023/09/05 16:01:28;;;;;;;1.58;0.40;;;;;;;35.80;25.77;100597.38;10282239;28;20420;-75
2023/09/05 16:06:30;;;;;;;0.60;0.30;;;;;;;35.47;26.02;100600.09;10285182;28;20039;-75
2023/09/05 16:11:33;;;;;;;1.35;0.30;;;;;;;35.22;25.83;100596.28;10285266;28;20302;-75
2023/09/05 16:16:34;;;;;;;1.02;0.40;;;;;;;35.08;25.94;100588.09;10284331;28;20367;-74
2023/09/05 16:21:37;;;;;;;0.60;0.32;;;;;;;35.08;25.94;100604.84;10287088;28;20097;-76
2023/09/05 16:26:38;;;;;;;2.22;0.40;;;;;;;35.21;26.19;100609.44;10284017;28;20050;-74
2023/09/05 16:31:40;;;;;;;1.05;0.25;;;;;;;35.33;25.78;100603.94;10279605;28;20101;-75
2023/09/05 16:36:41;;;;;;;1.35;0.40;;;;;;;35.32;26.07;100605.06;10280903;28;20055;-73
2023/09/05 16:41:43;;;;;;;0.47;0.30;;;;;;;35.39;26.02;100604.56;10277064;28;20544;-72
2023/09/05 16:46:45;;;;;;;1.23;0.40;;;;;;;35.38;26.08;100614.09;10283152;28;20046;-72
2023/09/05 16:51:46;;;;;;;0.28;0.20;;;;;;;35.28;26.35;100615.31;10278545;28;20376;-74
2023/09/05 16:56:47;;;;;;;0.77;0.30;;;;;;;34.94;26.11;100611.47;10282452;28;20047;-73
2023/09/05 17:01:50;;;;;;;0.90;0.43;;;;;;;34.47;26.99;100614.22;10281920;28;20125;-74
2023/09/05 17:06:52;;;;;;;2.30;0.45;;;;;;;33.88;27.72;100617.50;10288127;28;20047;-73
2023/09/05 17:11:54;;;;;;;0.50;0.40;;;;;;;33.29;28.43;100620.63;10286815;28;20120;-73
2023/09/05 17:16:56;;;;;;;1.17;0.60;;;;;;;32.69;29.10;100624.75;10285808;28;20278;-74
2023/09/05 17:21:57;;;;;;;1.67;0.50;;;;;;;32.12;29.83;100630.88;10259390;28;1009555;-73
2023/09/05 17:26:58;;;;;;;1.10;0.40;;;;;;;31.67;30.26;100627.16;10285603;28;20047;-71
2023/09/05 17:32:00;;;;;;;1.63;0.93;;;;;;;31.22;31.30;100623.03;10289075;28;20051;-73
2023/09/05 17:37:03;;;;;;;2.97;0.73;;;;;;;30.80;32.25;100624.91;10297226;28;20259;-72
2023/09/05 17:42:06;;;;;;;2.50;1.00;;;;;;;30.42;32.27;100624.19;10294028;28;20078;-72
2023/09/05 17:47:07;;;;;;;1.92;1.05;;;;;;;30.04;33.61;100632.53;10288128;28;20260;-72
2023/09/05 17:52:09;;;;;;;7.10;4.78;;;;;;;29.67;34.29;100632.16;10289027;28;20090;-72
2023/09/05 17:57:10;;;;;;;3.20;2.03;;;;;;;29.33;34.52;100651.69;10287734;28;20043;-72
2023/09/05 18:02:14;;;;;;;2.10;0.82;;;;;;;28.97;36.79;100653.97;10286836;28;20050;-72
2023/09/05 18:07:16;;;;;;;2.20;0.60;;;;;;;28.57;37.54;100653.25;10286875;28;20212;-71
2023/09/05 18:12:17;;;;;;;1.75;0.60;;;;;;;28.30;37.63;100651.78;10287602;28;20280;-72
2023/09/05 18:17:19;;;;;;;3.50;1.05;;;;;;;28.02;38.57;100658.84;10290383;28;20042;-71
2023/09/05 18:22:20;;;;;;;3.90;1.70;;;;;;;27.68;39.33;100659.53;10285698;28;20255;-72
2023/09/05 18:27:21;;;;;;;12.45;4.20;;;;;;;27.38;40.04;100655.78;10289998;28;20363;-72
2023/09/05 18:32:24;;;;;;;14.18;7.50;;;;;;;27.13;41.18;100661.34;10291419;28;20039;-73
2023/09/05 18:37:28;;;;;;;7.00;4.03;;;;;;;26.77;41.40;100669.69;10303586;28;20047;-70
2023/09/05 18:42:30;;;;;;;7.45;2.80;;;;;;;26.47;42.21;100665.78;10293771;28;20069;-71
2023/09/05 18:47:32;;;;;;;9.90;3.63;;;;;;;26.20;43.19;100664.06;10291879;28;20074;-72
2023/09/05 18:52:34;;;;;;;12.88;3.60;;;;;;;25.89;43.96;100671.44;10289384;28;20047;-74
2023/09/05 18:57:35;;;;;;;2.65;1.10;;;;;;;25.45;45.10;100686.38;10289989;28;20282;-73
2023/09/05 19:02:38;;;;;;;2.63;0.73;;;;;;;25.11;45.35;100685.88;10288677;28;20074;-72
2023/09/05 19:07:39;;;;;;;3.70;0.77;;;;;;;25.00;46.15;100695.13;10288657;28;20054;-73
2023/09/05 19:12:41;;;;;;;4.60;1.40;;;;;;;24.86;47.00;100703.00;10289919;28;20110;-71
2023/09/05 19:17:43;;;;;;;2.63;0.80;;;;;;;24.73;46.86;100709.78;10282744;28;20058;-73
2023/09/05 19:22:44;;;;;;;2.22;1.15;;;;;;;24.54;47.89;100707.38;10288041;28;20070;-72
2023/09/05 19:27:49;;;;;;;3.88;0.93;;;;;;;24.32;48.59;100706.59;10286909;28;20504;-73
2023/09/05 19:32:50;;;;;;;2.92;0.70;;;;;;;24.13;49.02;100717.09;10285931;28;20051;-73
2023/09/05 19:37:52;;;;;;;5.22;1.23;;;;;;;23.69;50.25;100711.59;10291000;28;20050;-75
2023/09/05 19:42:53;;;;;;;1.88;0.80;;;;;;;23.47;50.87;100717.88;10285848;28;20081;-75
2023/09/05 19:47:55;;;;;;;4.32;0.82;;;;;;;23.41;50.91;100712.59;10287775;28;20057;-73
2023/09/05 19:52:56;;;;;;;3.38;1.10;;;;;;;23.27;51.44;100714.88;10292080;28;20054;-75
2023/09/05 19:57:58;;;;;;;2.60;0.98;;;;;;;23.19;51.46;100721.59;10290374;28;20051;-75
2023/09/05 20:03:01;;;;;;;4.97;0.80;;;;;;;22.95;52.15;100727.22;10289812;28;20413;-76
2023/09/05 20:08:03;;;;;;;2.78;0.90;;;;;;;22.78;52.82;100729.94;10306310;28;20085;-75
2023/09/05 20:13:05;;;;;;;2.60;0.80;;;;;;;22.70;53.21;100735.03;10287614;28;20105;-75
2023/09/05 20:18:06;;;;;;;2.10;0.70;;;;;;;22.68;52.99;100726.22;10288996;28;20110;-75
2023/09/05 20:23:09;;;;;;;5.03;0.90;;;;;;;22.51;53.57;100745.34;10291343;28;20106;-75
2023/09/05 20:28:10;;;;;;;6.47;1.40;;;;;;;22.45;53.71;100738.13;10286984;28;20062;-76
2023/09/05 20:33:12;;;;;;;4.60;0.95;;;;;;;22.42;53.93;100742.19;10286765;28;20657;-76
2023/09/05 20:38:15;;;;;;;3.35;1.00;;;;;;;22.30;53.84;100734.03;10296045;28;20050;-76
2023/09/05 20:43:17;;;;;;;1.33;0.88;;;;;;;22.17;54.55;100746.03;10292309;28;20053;-75
2023/09/05 20:48:18;;;;;;;2.17;0.80;;;;;;;22.10;54.56;100742.63;10293149;28;20046;-75
2023/09/05 20:53:20;;;;;;;3.17;0.80;;;;;;;21.96;55.26;100744.00;10292262;28;20243;-74
2023/09/05 20:58:22;;;;;;;1.65;1.00;;;;;;;21.85;55.05;100747.59;10292985;28;20055;-74
2023/09/05 21:03:23;;;;;;;1.77;0.80;;;;;;;21.74;55.46;100752.84;10286762;28;20294;-71
2023/09/05 21:08:25;;;;;;;1.85;0.70;;;;;;;21.69;55.44;100749.16;10291268;28;20157;-69
2023/09/05 21:13:27;;;;;;;2.33;1.00;;;;;;;21.50;56.17;100752.00;10293787;28;20225;-71
2023/09/05 21:18:30;;;;;;;1.33;0.82;;;;;;;21.42;56.56;100751.53;10287333;28;20078;-70
2023/09/05 21:23:32;;;;;;;5.40;1.30;;;;;;;21.26;56.70;100764.81;10286992;28;20054;-73
2023/09/05 21:28:33;;;;;;;2.88;1.08;;;;;;;21.23;57.10;100770.78;10293376;28;20094;-70
2023/09/05 21:33:35;;;;;;;3.05;0.90;;;;;;;21.13;57.29;100774.09;10285023;28;20415;-70
2023/09/05 21:38:39;;;;;;;3.45;1.13;;;;;;;21.02;57.63;100768.63;10299488;28;20239;-68
2023/09/05 21:43:40;;;;;;;2.58;1.08;;;;;;;20.91;57.93;100756.56;10284178;28;20065;-68
2023/09/05 21:48:41;;;;;;;4.13;0.88;;;;;;;20.80;58.25;100755.50;10294187;28;20114;-68
2023/09/05 21:53:43;;;;;;;4.65;1.13;;;;;;;20.70;58.22;100753.31;10287381;28;20399;-68
2023/09/05 21:58:44;;;;;;;1.88;0.70;;;;;;;20.69;58.02;100753.56;10288852;28;20101;-68
2023/09/05 22:03:47;;;;;;;3.85;1.00;;;;;;;20.65;58.14;100764.09;10286728;28;20106;-67
2023/09/05 22:08:48;;;;;;;2.40;1.13;;;;;;;20.59;58.44;100760.41;10281898;28;20039;-68
2023/09/05 22:13:50;;;;;;;1.35;0.80;;;;;;;20.49;58.57;100762.00;10282619;28;20237;-68
2023/09/05 22:18:55;;;;;;;4.05;0.95;;;;;;;20.45;59.02;100761.63;10284223;28;20054;-69
2023/09/05 22:23:56;;;;;;;2.70;0.80;;;;;;;20.37;58.91;100760.06;10284757;28;20118;-68
2023/09/05 22:28:58;;;;;;;1.85;0.70;;;;;;;20.26;59.14;100763.59;10283677;28;20224;-68
2023/09/05 22:34:02;;;;;;;3.72;0.90;;;;;;;20.20;59.48;100773.53;10292051;28;20130;-68
2023/09/05 22:39:07;;;;;;;2.92;0.98;;;;;;;20.20;59.57;100767.22;10283686;28;20121;-68
2023/09/05 22:44:08;;;;;;;1.38;0.60;;;;;;;20.13;59.35;100766.47;10287159;28;20255;-68
2023/09/05 22:49:10;;;;;;;4.88;1.08;;;;;;;20.09;59.34;100760.63;10286163;28;20080;-69
2023/09/05 22:54:11;;;;;;;1.95;0.88;;;;;;;20.03;59.85;100764.28;10284214;28;20117;-69
2023/09/05 22:59:13;;;;;;;3.00;0.80;;;;;;;19.92;59.86;100760.41;10285107;28;20050;-71
2023/09/05 23:04:15;;;;;;;1.92;0.70;;;;;;;19.88;60.15;100761.94;10285918;28;20580;-69
2023/09/05 23:09:16;;;;;;;3.00;0.82;;;;;;;19.81;60.05;100769.38;10285514;28;20047;-70